Time;durP1;ratioP1;P1;durP2;ratioP2;P2;SDS_P1;SDS_P2;PMS_P1;PMS_P2;Temp;Humidity;BMP_temperature;BMP_pressure;BME280_temperature;BME280_humidity;BME280_pressure;Samples;Min_cycle;Max_cycle;Signal;HPM_P1;HPM_P2
2023/10/02 00:06:23;;;;;;;;;;;;;;;;;;;;;
2023/10/02 05:28:42;;;;;;;18.80;10.55;;;9.20;99.90;;;;;;5943939;24;20021;-82
2023/10/02 05:31:20;;;;;;;22.05;10.32;;;9.10;99.90;;;;;;5933558;24;20651;-82
2023/10/02 05:36:30;;;;;;;19.30;10.35;;;9.30;99.90;;;;;;5970013;24;20033;-82
2023/10/02 05:39:39;;;;;;;18.83;10.43;;;9.50;99.90;;;;;;5971334;24;20814;-82
2023/10/02 05:42:06;;;;;;;19.98;12.13;;;9.60;99.90;;;;;;5973088;24;20029;-82
2023/10/02 05:44:35;;;;;;;18.50;10.80;;;9.80;99.90;;;;;;6037765;23;20027;-82
2023/10/02 05:47:07;;;;;;;22.15;10.57;;;10.00;99.90;;;;;;6049716;23;20062;-80
2023/10/02 05:49:36;;;;;;;19.30;10.60;;;10.10;99.90;;;;;;6122036;23;20032;-83
2023/10/02 05:52:07;;;;;;;22.73;12.15;;;10.20;99.90;;;;;;6090957;23;20002;-83
2023/10/02 05:54:36;;;;;;;24.38;12.68;;;10.30;99.90;;;;;;6176229;23;20081;-81
2023/10/02 05:57:12;;;;;;;22.15;11.25;;;10.50;99.90;;;;;;6200913;23;20128;-83
2023/10/02 05:59:48;;;;;;;21.88;12.15;;;10.60;99.90;;;;;;6202773;23;20021;-83
2023/10/02 06:02:19;;;;;;;24.33;12.45;;;10.70;99.90;;;;;;6208568;23;20041;-83
2023/10/02 06:04:52;;;;;;;24.90;12.27;;;10.90;99.90;;;;;;6176108;23;20025;-81
2023/10/02 06:10:08;;;;;;;25.45;11.65;;;11.00;99.90;;;;;;6201364;23;20070;-82
2023/10/02 06:12:42;;;;;;;24.40;12.43;;;11.10;99.90;;;;;;6160983;23;20028;-82
2023/10/02 06:15:43;;;;;;;20.42;11.65;;;11.10;99.90;;;;;;6192363;23;20028;-81
2023/10/02 06:17:59;;;;;;;24.05;11.82;;;11.30;99.90;;;;;;6158291;23;20107;-79
2023/10/02 06:24:13;;;;;;;21.85;11.02;;;11.80;99.90;;;;;;6185055;23;20465;-82
2023/10/02 06:27:04;;;;;;;22.98;12.32;;;12.20;99.90;;;;;;6181940;23;20037;-82
2023/10/02 06:29:35;;;;;;;24.20;12.05;;;12.50;99.90;;;;;;6157461;23;20025;-85
2023/10/02 06:32:05;;;;;;;24.75;14.27;;;12.60;99.90;;;;;;6157471;23;20025;-81
2023/10/02 06:34:43;;;;;;;18.67;11.65;;;12.70;99.90;;;;;;6156332;23;20033;-80
2023/10/02 06:37:12;;;;;;;25.65;12.73;;;12.70;99.90;;;;;;6157362;23;20100;-79
2023/10/02 06:39:45;;;;;;;24.42;12.77;;;12.90;99.90;;;;;;6155597;23;20027;-81
2023/10/02 06:42:19;;;;;;;21.70;12.18;;;13.00;99.90;;;;;;6184137;23;20053;-83
2023/10/02 06:47:36;;;;;;;22.10;12.00;;;13.40;99.90;;;;;;6156376;23;20025;-81
2023/10/02 06:50:22;;;;;;;24.75;11.90;;;13.60;99.90;;;;;;6157271;23;20021;-80
2023/10/02 06:52:51;;;;;;;22.52;11.82;;;13.70;99.90;;;;;;6188375;23;20021;-82
2023/10/02 06:55:20;;;;;;;24.35;11.13;;;13.80;99.90;;;;;;6155074;23;20446;-81
2023/10/02 06:57:52;;;;;;;25.27;11.70;;;13.80;99.90;;;;;;6154934;23;20029;-82
2023/10/02 07:00:54;;;;;;;30.17;13.52;;;13.70;99.90;;;;;;6178190;23;20025;-83
2023/10/02 07:03:24;;;;;;;22.17;12.43;;;13.60;99.90;;;;;;6152626;23;20394;-80
2023/10/02 07:05:52;;;;;;;20.80;11.30;;;13.90;99.90;;;;;;6143236;23;20437;-81
2023/10/02 07:08:22;;;;;;;23.60;13.70;;;14.30;99.90;;;;;;6185207;23;20021;-82
2023/10/02 07:10:51;;;;;;;20.80;11.70;;;14.40;99.90;;;;;;6155818;23;20040;-80
2023/10/02 07:13:23;;;;;;;26.08;12.50;;;14.60;99.90;;;;;;6161025;23;20063;-81
2023/10/02 07:15:55;;;;;;;24.08;12.90;;;14.90;99.90;;;;;;6158665;23;20043;-83
2023/10/02 07:18:35;;;;;;;22.08;12.18;;;15.00;99.90;;;;;;6158331;23;20095;-80
2023/10/02 07:21:07;;;;;;;22.67;11.38;;;15.10;99.90;;;;;;6160780;23;20052;-80
2023/10/02 07:23:39;;;;;;;21.23;11.20;;;15.40;99.90;;;;;;6146360;23;20455;-80
2023/10/02 07:26:14;;;;;;;22.75;12.70;;;15.80;99.90;;;;;;6181150;23;20017;-82
2023/10/02 07:28:50;;;;;;;21.73;10.65;;;16.00;99.90;;;;;;6179416;23;20028;-81
2023/10/02 07:31:20;;;;;;;20.48;11.15;;;16.40;99.90;;;;;;6179279;23;20076;-79
2023/10/02 07:33:58;;;;;;;21.17;10.63;;;16.70;99.90;;;;;;6156125;23;20393;-83
2023/10/02 07:36:30;;;;;;;20.88;10.63;;;17.00;99.90;;;;;;6182373;23;20036;-80
2023/10/02 07:39:00;;;;;;;19.50;11.15;;;17.10;99.90;;;;;;6155522;23;20448;-80
2023/10/02 07:41:28;;;;;;;20.95;10.70;;;17.20;99.90;;;;;;6172106;23;20025;-81
2023/10/02 07:44:07;;;;;;;17.40;9.65;;;17.30;99.90;;;;;;6172027;23;20040;-81
2023/10/02 07:46:38;;;;;;;16.23;9.57;;;17.40;99.90;;;;;;6152381;23;20052;-81
2023/10/02 07:49:10;;;;;;;22.20;11.60;;;17.30;99.90;;;;;;6153264;23;20021;-81
2023/10/02 07:51:43;;;;;;;17.55;9.77;;;17.40;99.90;;;;;;6139156;23;20456;-81
2023/10/02 07:54:15;;;;;;;22.60;8.85;;;17.60;99.90;;;;;;6152186;23;20128;-81
2023/10/02 07:56:49;;;;;;;15.15;8.90;;;17.60;99.90;;;;;;6138872;23;20025;-81
2023/10/02 07:59:29;;;;;;;24.08;12.35;;;17.60;99.90;;;;;;6154791;23;20077;-82
2023/10/02 08:02:21;;;;;;;17.10;8.93;;;17.80;99.90;;;;;;6139464;23;20056;-79
2023/10/02 08:04:59;;;;;;;16.00;8.57;;;18.00;99.90;;;;;;6171062;23;20055;-82
2023/10/02 08:07:30;;;;;;;18.75;9.27;;;18.20;99.90;;;;;;6152706;23;20403;-80
2023/10/02 08:09:59;;;;;;;16.27;8.23;;;18.20;99.90;;;;;;6154667;23;20068;-82
2023/10/02 08:12:35;;;;;;;16.52;9.20;;;18.40;99.90;;;;;;6164497;23;20118;-81
2023/10/02 08:15:27;;;;;;;18.45;8.38;;;18.50;99.90;;;;;;6142297;23;20105;-82
2023/10/02 08:18:16;;;;;;;18.75;9.05;;;18.50;99.90;;;;;;6166872;23;20025;-81
2023/10/02 08:21:01;;;;;;;16.50;8.52;;;18.60;99.90;;;;;;6153736;23;20017;-84
2023/10/02 08:23:29;;;;;;;25.85;10.07;;;18.70;99.90;;;;;;6154047;23;20021;-82
2023/10/02 08:26:40;;;;;;;21.73;10.05;;;18.60;99.90;;;;;;6152639;23;20017;-81
2023/10/02 08:29:20;;;;;;;20.75;9.65;;;18.70;99.90;;;;;;6152523;23;20021;-81
2023/10/02 08:31:57;;;;;;;18.50;10.18;;;18.70;99.90;;;;;;6177435;23;20025;-82
2023/10/02 08:34:26;;;;;;;16.38;8.98;;;18.80;99.90;;;;;;6154314;23;20092;-81
2023/10/02 08:37:07;;;;;;;19.77;10.05;;;18.80;99.90;;;;;;6153723;23;20379;-83
2023/10/02 08:39:48;;;;;;;21.38;10.00;;;19.00;99.90;;;;;;6154559;23;20056;-83
2023/10/02 08:42:46;;;;;;;21.85;10.73;;;19.20;99.90;;;;;;6180912;23;20029;-85
2023/10/02 08:45:20;;;;;;;19.92;9.18;;;19.50;99.90;;;;;;6157956;23;20048;-82
2023/10/02 08:51:35;;;;;;;19.30;10.57;;;20.10;99.90;;;;;;6144721;23;20044;-83
2023/10/02 08:54:46;;;;;;;16.33;9.03;;;20.30;99.90;;;;;;6120942;23;20026;-82
2023/10/02 09:57:29;;;;;;;23.73;8.77;;;22.60;99.90;;;;;;6274379;22;1510445;-76
2023/10/02 09:59:57;;;;;;;17.73;9.82;;;22.50;99.90;;;;;;6266499;22;20283;-78
2023/10/02 10:05:45;;;;;;;19.58;10.40;;;22.30;99.90;;;;;;6215570;23;20020;-80
2023/10/02 10:08:33;;;;;;;24.63;11.75;;;22.20;99.90;;;;;;6227190;22;20044;-78
2023/10/02 10:11:10;;;;;;;19.15;9.60;;;22.10;99.90;;;;;;6202250;23;20129;-77
2023/10/02 10:13:46;;;;;;;17.52;9.13;;;22.10;99.90;;;;;;6212569;23;20227;-76
2023/10/02 10:16:36;;;;;;;23.58;12.38;;;22.00;99.90;;;;;;6219788;23;20587;-77
2023/10/02 10:19:32;;;;;;;16.38;9.50;;;21.90;99.90;;;;;;6220828;23;20024;-76
2023/10/02 10:22:00;;;;;;;;;;;21.90;99.90;;;;;;6223230;23;20028;-79
2023/10/02 10:24:51;;;;;;;19.75;9.43;;;22.10;99.90;;;;;;6224479;22;19978;-78
2023/10/02 10:30:10;;;;;;;25.27;9.32;;;22.10;99.90;;;;;;6185460;22;20422;-87
2023/10/02 10:48:46;;;;;;;;;;;;;;;;;;;;;
2023/10/02 10:51:33;;;;;;;;;;;;;;;;;;;;;
2023/10/02 10:54:25;;;;;;;21.92;10.45;;;22.40;99.90;;;;;;6055921;23;20031;-89
2023/10/02 10:57:22;;;;;;;20.73;8.80;;;22.50;99.90;;;;;;6058076;23;20066;-87
2023/10/02 11:00:23;;;;;;;14.40;8.60;;;22.90;99.90;;;;;;6032379;23;20023;-89
2023/10/02 11:03:08;;;;;;;14.15;7.88;;;23.10;99.90;;;;;;6075420;23;20037;-87
2023/10/02 11:05:39;;;;;;;14.65;8.05;;;23.30;99.90;;;;;;6049826;23;20033;-87
2023/10/02 11:11:48;;;;;;;15.88;8.02;;;23.60;99.90;;;;;;6162897;23;20017;-89
2023/10/02 11:14:20;;;;;;;13.27;7.53;;;23.50;99.90;;;;;;6229281;23;20025;-88
2023/10/02 11:16:54;;;;;;;19.23;8.45;;;23.50;99.90;;;;;;6216538;23;20349;-90
2023/10/02 11:19:34;;;;;;;18.45;10.57;;;23.50;99.90;;;;;;6231184;23;20329;-88
2023/10/02 11:22:18;;;;;;;19.90;9.95;;;23.60;99.90;;;;;;6230152;23;20041;-88
2023/10/02 11:25:17;;;;;;;20.20;10.10;;;23.70;99.90;;;;;;6192022;23;20021;-88
2023/10/02 11:27:57;;;;;;;18.30;9.27;;;23.70;99.90;;;;;;6190674;23;20025;-87
2023/10/02 11:30:32;;;;;;;20.77;10.68;;;23.50;99.90;;;;;;6237844;23;20028;-87
2023/10/02 11:33:04;;;;;;;29.23;12.00;;;23.30;99.90;;;;;;6248697;22;20020;-87
2023/10/02 11:35:43;;;;;;;20.38;12.18;;;23.20;99.90;;;;;;6250490;22;20016;-89
2023/10/02 11:38:35;;;;;;;22.67;10.93;;;23.10;99.90;;;;;;6248248;22;20035;-88
2023/10/02 11:41:05;;;;;;;26.88;17.40;;;23.20;99.90;;;;;;6245420;23;20373;-87
2023/10/02 11:43:34;;;;;;;29.92;20.80;;;23.20;99.90;;;;;;6253320;22;20024;-87
2023/10/02 11:46:03;;;;;;;23.38;13.25;;;23.30;99.90;;;;;;6270278;22;20004;-90
2023/10/02 11:48:33;;;;;;;20.35;11.57;;;23.50;99.90;;;;;;6269989;22;20008;-87
2023/10/02 11:51:02;;;;;;;20.70;10.38;;;23.60;99.90;;;;;;6266235;23;20024;-88
2023/10/02 11:53:30;;;;;;;22.92;12.98;;;23.50;99.90;;;;;;6259434;23;20309;-89
2023/10/02 11:56:20;;;;;;;22.20;12.82;;;23.50;99.90;;;;;;6254945;22;20036;-87
2023/10/02 11:58:48;;;;;;;23.85;14.43;;;23.90;99.90;;;;;;6226920;23;20399;-87
2023/10/02 12:08:38;;;;;;;26.88;15.00;;;24.00;99.90;;;;;;6008577;23;20046;-82
2023/10/02 12:12:00;;;;;;;24.20;14.20;;;23.90;99.90;;;;;;6071672;23;20058;-88
2023/10/02 12:14:35;;;;;;;23.13;14.88;;;23.90;99.90;;;;;;6062405;23;20315;-81
2023/10/02 12:17:11;;;;;;;20.67;11.57;;;24.00;99.90;;;;;;6046757;23;20055;-85
2023/10/02 12:20:10;;;;;;;17.08;10.82;;;24.00;99.90;;;;;;6045297;23;20027;-84
2023/10/02 12:22:52;;;;;;;23.17;10.30;;;23.60;99.90;;;;;;6046174;23;20075;-84
2023/10/02 12:29:05;;;;;;;22.17;10.45;;;23.10;99.90;;;;;;6114521;23;20025;-84
2023/10/02 12:34:49;;;;;;;21.85;10.43;;;23.20;99.90;;;;;;6175202;23;20099;-80
2023/10/02 12:37:18;;;;;;;18.65;10.23;;;23.10;99.90;;;;;;6189365;23;20017;-81
2023/10/02 12:39:47;;;;;;;19.95;10.95;;;23.10;99.90;;;;;;6158397;23;20019;-81
2023/10/02 12:42:18;;;;;;;18.85;11.82;;;23.00;99.90;;;;;;6245299;22;20051;-86
2023/10/02 12:44:46;;;;;;;18.40;10.70;;;23.20;99.90;;;;;;6249634;22;20464;-85
2023/10/02 12:47:23;;;;;;;18.65;10.45;;;23.40;99.90;;;;;;6247221;23;20024;-83
2023/10/02 12:49:54;;;;;;;17.48;10.50;;;23.50;99.90;;;;;;6250345;22;20031;-85
2023/10/02 12:52:56;;;;;;;15.80;9.75;;;23.80;99.90;;;;;;6264444;22;20226;-85
2023/10/02 12:55:52;;;;;;;17.75;11.35;;;23.90;99.90;;;;;;6234884;22;20032;-88
2023/10/02 12:58:36;;;;;;;18.33;10.13;;;24.00;99.90;;;;;;6079905;23;20023;-85
2023/10/02 13:01:13;;;;;;;14.13;8.45;;;24.00;99.90;;;;;;6126415;23;20038;-85
2023/10/02 13:04:36;;;;;;;17.65;9.40;;;23.80;99.90;;;;;;6116230;23;20070;-86
2023/10/02 13:07:11;;;;;;;18.17;10.90;;;23.50;99.90;;;;;;6093150;23;20296;-86
2023/10/02 13:09:51;;;;;;;;;;;;;;;;;;;;;
2023/10/02 13:12:41;;;;;;;20.15;9.70;;;23.00;99.90;;;;;;6091944;23;20042;-88
2023/10/02 13:16:10;;;;;;;22.90;10.82;;;23.00;99.90;;;;;;6103191;23;20006;-88
2023/10/02 13:19:28;;;;;;;;;;;;;;;;;;;;;
2023/10/02 13:22:07;;;;;;;13.73;8.55;;;22.80;99.90;;;;;;6033980;23;20018;-86
2023/10/02 13:24:42;;;;;;;12.48;7.22;;;22.90;99.90;;;;;;6089936;23;20019;-86
2023/10/02 13:33:57;;;;;;;13.80;8.35;;;22.70;99.90;;;;;;6250283;22;20074;-89
2023/10/02 13:40:44;;;;;;;15.88;11.20;;;22.70;99.90;;;;;;6115230;23;20176;-88
2023/10/02 13:44:23;;;;;;;14.15;8.35;;;22.80;99.90;;;;;;6153762;23;20021;-83
2023/10/02 13:47:14;;;;;;;16.25;10.43;;;22.90;99.90;;;;;;6116799;23;20077;-86
2023/10/02 13:49:56;;;;;;;15.40;9.40;;;22.90;99.90;;;;;;6162124;23;20041;-90
2023/10/02 13:52:54;;;;;;;15.57;10.13;;;22.90;99.90;;;;;;6128724;23;20022;-90
2023/10/02 13:55:27;;;;;;;14.10;8.07;;;23.00;99.90;;;;;;6117859;23;20037;-88
2023/10/02 13:58:10;;;;;;;13.15;7.40;;;23.10;99.90;;;;;;6138409;23;20054;-91
2023/10/02 14:18:53;;;;;;;15.48;7.40;;;23.00;99.90;;;;;;6204788;23;20031;-87
2023/10/02 14:22:36;;;;;;;17.67;8.52;;;22.90;99.90;;;;;;6238162;23;20016;-88
2023/10/02 14:26:00;;;;;;;13.77;8.00;;;23.00;99.90;;;;;;6191553;23;20063;-87
2023/10/02 14:29:23;;;;;;;;;;;;;;;;;;;;;
2023/10/02 16:02:34;;;;;;;28.55;17.17;;;21.50;99.90;;;;;;5873670;24;20082;-87
2023/10/02 16:20:13;;;;;;;32.05;18.02;;;20.30;99.90;;;;;;5898673;24;20081;-89
2023/10/02 16:29:40;;;;;;;38.42;22.58;;;19.90;99.90;;;;;;5913156;24;20544;-88
2023/10/02 16:44:53;;;;;;;44.92;25.08;;;19.00;99.90;;;;;;6149572;23;20048;-77
2023/10/02 16:47:21;;;;;;;40.53;22.45;;;18.80;99.90;;;;;;6165097;23;20108;-76
2023/10/02 16:49:48;;;;;;;40.65;24.00;;;18.70;99.90;;;;;;6161151;23;20134;-77
2023/10/02 16:52:18;;;;;;;35.53;22.30;;;18.60;99.90;;;;;;6168110;23;20069;-77
2023/10/02 16:54:46;;;;;;;36.42;22.98;;;18.50;99.90;;;;;;6170423;23;20495;-76
2023/10/02 16:57:14;;;;;;;34.65;21.83;;;18.60;99.90;;;;;;6153532;23;20073;-76
2023/10/02 16:59:42;;;;;;;37.20;22.58;;;18.60;99.90;;;;;;6156365;23;20032;-75
2023/10/02 17:02:11;;;;;;;38.80;21.85;;;18.60;99.90;;;;;;6166483;23;20022;-76
2023/10/02 17:04:41;;;;;;;37.03;21.02;;;18.50;99.90;;;;;;6165061;23;20049;-75
2023/10/02 17:07:10;;;;;;;33.38;19.38;;;18.30;99.90;;;;;;6154132;23;20112;-75
2023/10/02 17:09:44;;;;;;;83.30;53.90;;;18.10;99.90;;;;;;6167632;23;20044;-75
2023/10/02 17:12:24;;;;;;;40.88;23.60;;;18.00;99.90;;;;;;6175327;23;20021;-79
2023/10/02 17:14:58;;;;;;;42.58;25.88;;;17.90;99.90;;;;;;6198875;23;20029;-79
2023/10/02 17:17:29;;;;;;;49.63;30.30;;;18.00;99.90;;;;;;6178714;23;20063;-76
2023/10/02 17:19:59;;;;;;;44.33;27.27;;;18.00;99.90;;;;;;6177470;23;20426;-77
2023/10/02 17:22:27;;;;;;;45.65;26.90;;;17.90;99.90;;;;;;6176928;23;20009;-78
2023/10/02 17:24:54;;;;;;;45.35;29.65;;;17.90;99.90;;;;;;6160056;23;20025;-76
2023/10/02 17:27:22;;;;;;;49.20;29.08;;;17.80;99.90;;;;;;6150193;23;20109;-77
2023/10/02 17:29:49;;;;;;;50.70;31.48;;;17.70;99.90;;;;;;6151624;23;20052;-77
2023/10/02 17:32:18;;;;;;;56.25;33.63;;;17.50;99.90;;;;;;6155536;23;20035;-76
2023/10/02 17:34:47;;;;;;;42.30;26.70;;;17.50;99.90;;;;;;6158605;23;20130;-77
2023/10/02 17:37:16;;;;;;;51.33;30.55;;;17.40;99.90;;;;;;6161844;23;20028;-77
2023/10/02 17:39:43;;;;;;;38.20;24.23;;;17.30;99.90;;;;;;6151678;23;20056;-76
2023/10/02 17:42:11;;;;;;;37.38;23.77;;;17.30;99.90;;;;;;6175696;23;20025;-75
2023/10/02 17:44:39;;;;;;;35.78;23.08;;;17.10;99.90;;;;;;6170781;23;20053;-76
2023/10/02 17:47:06;;;;;;;38.58;24.35;;;17.10;99.90;;;;;;6158801;23;20367;-76
2023/10/02 17:49:34;;;;;;;44.15;26.55;;;16.90;99.90;;;;;;6159892;23;20109;-74
2023/10/02 17:52:04;;;;;;;47.40;27.65;;;16.90;99.90;;;;;;6161538;23;20048;-77
2023/10/02 17:54:33;;;;;;;39.90;23.88;;;16.80;99.90;;;;;;6149796;23;20037;-77
2023/10/02 17:57:02;;;;;;;49.10;30.25;;;16.70;99.90;;;;;;6154355;23;20017;-77
2023/10/02 17:59:30;;;;;;;46.67;30.60;;;16.80;99.90;;;;;;6153789;23;20025;-76
2023/10/02 18:02:02;;;;;;;39.50;26.40;;;16.90;99.90;;;;;;6156701;23;20424;-77
2023/10/02 18:04:29;;;;;;;35.72;24.50;;;16.70;99.90;;;;;;6158777;23;20033;-76
2023/10/02 18:06:57;;;;;;;39.38;26.85;;;16.70;99.90;;;;;;6161356;23;20093;-77
2023/10/02 18:09:26;;;;;;;53.10;32.28;;;16.80;99.90;;;;;;6153019;23;20100;-75
2023/10/02 18:11:53;;;;;;;57.45;37.75;;;16.60;99.90;;;;;;6158504;23;20508;-77
2023/10/02 18:14:21;;;;;;;37.03;22.30;;;16.40;99.90;;;;;;6157642;23;20450;-76
2023/10/02 18:16:49;;;;;;;33.45;21.15;;;16.40;99.90;;;;;;6164037;23;20021;-75
2023/10/02 18:19:16;;;;;;;29.50;18.98;;;16.50;99.90;;;;;;6166608;23;20027;-75
2023/10/02 18:21:45;;;;;;;36.42;20.58;;;16.40;99.90;;;;;;6174489;23;20282;-75
2023/10/02 18:24:13;;;;;;;35.00;22.42;;;16.40;99.90;;;;;;6168116;23;20032;-77
2023/10/02 18:26:43;;;;;;;41.83;25.33;;;16.40;99.90;;;;;;6160322;23;20100;-74
2023/10/02 18:29:13;;;;;;;42.50;25.85;;;16.30;99.90;;;;;;6162827;23;20032;-74
2023/10/02 18:31:41;;;;;;;41.65;24.33;;;16.30;99.90;;;;;;6159730;23;20802;-75
2023/10/02 18:34:09;;;;;;;36.55;24.17;;;16.20;99.90;;;;;;6161515;23;20013;-75
2023/10/02 18:36:37;;;;;;;40.03;25.25;;;16.20;99.90;;;;;;6150927;23;20025;-75
2023/10/02 18:39:12;;;;;;;34.97;22.00;;;16.00;99.90;;;;;;6153995;23;20108;-75
2023/10/02 18:41:42;;;;;;;29.63;19.88;;;15.90;99.90;;;;;;6157188;23;20080;-75
2023/10/02 18:44:10;;;;;;;32.58;20.33;;;15.80;99.90;;;;;;6181121;23;20029;-75
2023/10/02 18:46:38;;;;;;;31.83;19.90;;;15.80;99.90;;;;;;6190208;23;20083;-76
2023/10/02 18:49:08;;;;;;;39.63;23.25;;;15.80;99.90;;;;;;6191974;23;20025;-75
2023/10/02 18:51:36;;;;;;;37.72;24.27;;;15.70;99.90;;;;;;6181414;23;20075;-74
2023/10/02 18:54:06;;;;;;;41.05;24.30;;;15.70;99.90;;;;;;6183802;23;20100;-75
2023/10/02 18:56:34;;;;;;;36.17;23.50;;;15.50;99.90;;;;;;6189398;23;20353;-76
2023/10/02 18:59:04;;;;;;;34.90;21.75;;;15.70;99.90;;;;;;6205872;23;20021;-74
2023/10/02 19:01:32;;;;;;;41.03;24.52;;;15.60;99.90;;;;;;6206304;23;20033;-77
2023/10/02 19:04:09;;;;;;;38.10;24.35;;;15.60;99.90;;;;;;6194965;23;20046;-75
2023/10/02 19:06:38;;;;;;;39.63;24.73;;;15.50;99.90;;;;;;6180431;23;20029;-74
2023/10/02 19:09:07;;;;;;;35.08;25.75;;;15.20;99.90;;;;;;6185934;23;20307;-75
2023/10/02 19:11:35;;;;;;;36.70;23.40;;;15.20;99.90;;;;;;6185924;23;20056;-76
2023/10/02 19:14:04;;;;;;;31.33;19.42;;;15.30;99.90;;;;;;6188228;23;20029;-75
2023/10/02 19:16:32;;;;;;;30.45;19.40;;;15.20;99.90;;;;;;6189783;23;20016;-76
2023/10/02 19:18:59;;;;;;;30.88;18.98;;;15.10;99.90;;;;;;6191139;23;20013;-77
2023/10/02 19:21:27;;;;;;;36.78;23.40;;;15.10;99.90;;;;;;6154502;23;20045;-75
2023/10/02 19:23:55;;;;;;;29.90;19.67;;;15.00;99.90;;;;;;6182851;23;20021;-75
2023/10/02 19:26:23;;;;;;;30.30;19.63;;;14.90;99.90;;;;;;6185677;23;20527;-74
2023/10/02 19:28:52;;;;;;;31.20;20.23;;;14.90;99.90;;;;;;6187184;23;20024;-76
2023/10/02 19:31:21;;;;;;;40.55;23.50;;;14.90;99.90;;;;;;6160086;23;20027;-74
2023/10/02 19:33:49;;;;;;;34.03;21.88;;;14.90;99.90;;;;;;6200388;23;20774;-74
2023/10/02 19:36:16;;;;;;;34.97;22.20;;;14.80;99.90;;;;;;6184839;23;20117;-74
2023/10/02 19:38:44;;;;;;;32.72;21.38;;;14.90;99.90;;;;;;6193515;23;20025;-76
2023/10/02 19:41:14;;;;;;;37.80;26.25;;;14.90;99.90;;;;;;6190790;23;20108;-76
2023/10/02 19:43:43;;;;;;;34.05;21.25;;;14.90;99.90;;;;;;6188650;23;20025;-76
2023/10/02 19:46:11;;;;;;;33.08;20.52;;;14.90;99.90;;;;;;6179384;23;20025;-74
2023/10/02 19:48:40;;;;;;;35.72;22.60;;;14.80;99.90;;;;;;6180187;23;20786;-75
2023/10/02 19:51:08;;;;;;;54.72;32.00;;;14.80;99.90;;;;;;6182612;23;20025;-76
2023/10/02 19:53:36;;;;;;;57.83;35.05;;;14.60;99.90;;;;;;6184042;23;20029;-75
2023/10/02 19:56:04;;;;;;;45.08;27.83;;;14.50;99.90;;;;;;6186118;23;20087;-74
2023/10/02 19:58:32;;;;;;;42.30;26.15;;;14.50;99.90;;;;;;6188013;23;20598;-75
2023/10/02 20:01:00;;;;;;;36.42;22.20;;;14.40;99.90;;;;;;6191859;23;20024;-74
2023/10/02 20:03:28;;;;;;;38.97;20.77;;;14.40;99.90;;;;;;6181665;23;20028;-75
2023/10/02 20:05:59;;;;;;;34.28;22.33;;;14.50;99.90;;;;;;6185699;23;20025;-76
2023/10/02 20:08:27;;;;;;;35.38;22.45;;;14.40;99.90;;;;;;6190181;23;20033;-75
2023/10/02 20:10:56;;;;;;;36.78;21.30;;;14.30;99.90;;;;;;6192178;23;20029;-76
2023/10/02 20:13:23;;;;;;;36.50;22.67;;;14.30;99.90;;;;;;6194274;23;20456;-74
2023/10/02 20:15:51;;;;;;;35.35;22.63;;;14.30;99.90;;;;;;6190510;23;20116;-76
2023/10/02 20:18:18;;;;;;;36.17;24.10;;;14.20;99.90;;;;;;6180301;23;20096;-76
2023/10/02 20:20:47;;;;;;;37.47;23.05;;;14.10;99.90;;;;;;6177614;23;20027;-75
2023/10/02 20:23:16;;;;;;;39.80;25.67;;;14.00;99.90;;;;;;6185538;23;20021;-75
2023/10/02 20:25:44;;;;;;;34.97;24.17;;;13.90;99.90;;;;;;6189010;23;20031;-75
2023/10/02 20:28:15;;;;;;;32.40;20.70;;;14.00;99.90;;;;;;6192946;23;20033;-75
2023/10/02 20:30:42;;;;;;;32.30;20.55;;;14.00;99.90;;;;;;6179510;23;20049;-77
2023/10/02 20:33:11;;;;;;;31.52;20.30;;;14.00;99.90;;;;;;6190205;23;20031;-76
2023/10/02 20:35:39;;;;;;;31.05;19.42;;;14.00;99.90;;;;;;6198483;23;20091;-74
2023/10/02 20:38:06;;;;;;;31.95;20.52;;;14.00;99.90;;;;;;6202496;23;20032;-76
2023/10/02 20:40:35;;;;;;;30.08;20.45;;;13.90;99.90;;;;;;6202824;23;20087;-76
2023/10/02 20:43:04;;;;;;;33.50;20.70;;;13.70;99.90;;;;;;6204215;23;20024;-76
2023/10/02 20:45:31;;;;;;;32.78;20.02;;;13.80;99.90;;;;;;6188075;23;20029;-75
2023/10/02 20:47:59;;;;;;;31.45;20.02;;;13.80;99.90;;;;;;6193501;23;20049;-75
2023/10/02 20:50:26;;;;;;;28.58;18.63;;;13.80;99.90;;;;;;6196225;23;20507;-73
2023/10/02 20:52:56;;;;;;;26.52;17.27;;;13.80;99.90;;;;;;6193017;23;20021;-74
2023/10/02 20:55:26;;;;;;;31.77;19.77;;;13.80;99.90;;;;;;6189760;23;20024;-78
2023/10/02 20:57:56;;;;;;;33.05;20.52;;;13.70;99.90;;;;;;6195476;23;20021;-74
2023/10/02 21:00:24;;;;;;;30.70;19.38;;;13.70;99.90;;;;;;6190622;23;20021;-74
2023/10/02 21:02:52;;;;;;;29.17;18.80;;;13.70;99.90;;;;;;6182200;23;20075;-74
2023/10/02 21:05:19;;;;;;;29.20;19.27;;;13.70;99.90;;;;;;6184599;23;20029;-75
2023/10/02 21:07:47;;;;;;;30.00;18.58;;;13.60;99.90;;;;;;6186949;23;20040;-75
2023/10/02 21:10:16;;;;;;;33.08;19.88;;;13.60;99.90;;;;;;6189128;23;20383;-75
2023/10/02 21:12:44;;;;;;;33.15;18.75;;;13.50;99.90;;;;;;6179234;23;20043;-75
2023/10/02 21:15:13;;;;;;;31.77;19.80;;;13.50;99.90;;;;;;6181921;23;20504;-74
2023/10/02 21:17:41;;;;;;;31.15;20.40;;;13.40;99.90;;;;;;6183393;23;20028;-77
2023/10/02 21:20:11;;;;;;;27.67;18.40;;;13.30;99.90;;;;;;6185582;23;20025;-77
2023/10/02 21:22:40;;;;;;;27.92;18.13;;;13.30;99.90;;;;;;6188251;23;20021;-78
2023/10/02 21:25:26;;;;;;;28.80;18.38;;;13.20;99.90;;;;;;6190902;23;20644;-83
2023/10/02 21:27:54;;;;;;;29.60;18.15;;;13.20;99.90;;;;;;6165146;23;20476;-76
2023/10/02 21:34:35;;;;;;;28.75;18.42;;;13.20;99.90;;;;;;6113625;23;20083;-79
2023/10/02 21:37:20;;;;;;;32.15;20.02;;;13.20;99.90;;;;;;6179460;23;20049;-76
2023/10/02 21:39:56;;;;;;;26.15;16.75;;;13.20;99.90;;;;;;6177686;23;20025;-77
2023/10/02 21:42:24;;;;;;;27.70;16.88;;;13.30;99.90;;;;;;6179205;23;20025;-76
2023/10/02 21:44:51;;;;;;;25.23;17.48;;;13.20;99.90;;;;;;6155275;23;20032;-75
2023/10/02 21:47:19;;;;;;;27.08;17.25;;;13.10;99.90;;;;;;6172316;23;20022;-76
2023/10/02 21:49:51;;;;;;;28.02;17.70;;;12.90;99.90;;;;;;6172340;23;20409;-76
2023/10/02 21:52:19;;;;;;;24.70;17.02;;;13.10;99.90;;;;;;6158749;23;20092;-75
2023/10/02 21:54:48;;;;;;;26.52;17.30;;;13.10;99.90;;;;;;6159880;23;20021;-77
2023/10/02 21:57:15;;;;;;;24.98;16.52;;;13.00;99.90;;;;;;6153288;23;20092;-76
2023/10/02 21:59:43;;;;;;;29.27;17.88;;;13.00;99.90;;;;;;6155819;23;20128;-75
2023/10/02 22:02:10;;;;;;;27.38;16.65;;;13.00;99.90;;;;;;6159870;23;20476;-75
2023/10/02 22:04:39;;;;;;;26.42;17.17;;;13.00;99.90;;;;;;6161431;23;20021;-75
2023/10/02 22:07:09;;;;;;;27.00;17.15;;;12.90;99.90;;;;;;6161145;23;20453;-77
2023/10/02 22:09:36;;;;;;;24.73;16.55;;;12.80;99.90;;;;;;6149334;23;20056;-77
2023/10/02 22:12:05;;;;;;;24.58;15.50;;;12.80;99.90;;;;;;6152121;23;20045;-75
2023/10/02 22:14:32;;;;;;;25.58;16.90;;;12.80;99.90;;;;;;6154679;23;20105;-76
2023/10/02 22:17:01;;;;;;;27.63;16.98;;;12.80;99.90;;;;;;6170012;23;20105;-76
2023/10/02 22:19:34;;;;;;;26.50;16.15;;;12.80;99.90;;;;;;6161422;23;20072;-76
2023/10/02 22:22:05;;;;;;;25.77;15.75;;;12.70;99.90;;;;;;6167467;23;20033;-76
2023/10/02 22:24:34;;;;;;;27.42;17.63;;;12.80;99.90;;;;;;6159517;23;20354;-76
2023/10/02 22:27:02;;;;;;;26.85;16.13;;;12.70;99.90;;;;;;6151770;23;20029;-76
2023/10/02 22:29:30;;;;;;;25.95;17.80;;;12.70;99.90;;;;;;6153590;23;20018;-76
2023/10/02 22:31:57;;;;;;;27.90;16.98;;;12.60;99.90;;;;;;6156598;23;20640;-75
2023/10/02 22:34:26;;;;;;;24.20;16.35;;;12.60;99.90;;;;;;6174127;23;20036;-75
2023/10/02 22:36:55;;;;;;;25.80;16.55;;;12.60;99.90;;;;;;6174884;23;20065;-75
2023/10/02 22:39:24;;;;;;;26.63;16.45;;;12.70;99.90;;;;;;6157198;23;20022;-75
2023/10/02 22:41:53;;;;;;;28.40;16.60;;;12.60;99.90;;;;;;6155388;23;20030;-76
2023/10/02 22:44:21;;;;;;;26.30;16.27;;;12.60;99.90;;;;;;6190343;23;20032;-74
2023/10/02 22:46:48;;;;;;;27.33;16.30;;;12.60;99.90;;;;;;6184345;23;20042;-75
2023/10/02 22:49:16;;;;;;;28.67;17.42;;;12.50;99.90;;;;;;6179378;23;20017;-74
2023/10/02 22:51:44;;;;;;;25.17;17.00;;;12.50;99.90;;;;;;6211263;23;20026;-75
2023/10/02 22:54:11;;;;;;;25.40;16.75;;;12.40;99.90;;;;;;6196705;23;20454;-73
2023/10/02 22:56:39;;;;;;;26.80;16.80;;;12.40;99.90;;;;;;6206617;23;20045;-75
2023/10/02 22:59:08;;;;;;;25.23;16.33;;;12.40;99.90;;;;;;6208462;23;20033;-77
2023/10/02 23:01:35;;;;;;;27.83;17.92;;;12.40;99.90;;;;;;6195889;23;20056;-74
2023/10/02 23:04:06;;;;;;;29.17;17.30;;;12.40;99.90;;;;;;6223974;23;20095;-74
2023/10/02 23:06:34;;;;;;;23.83;16.27;;;12.20;99.90;;;;;;6184710;23;20041;-74
2023/10/02 23:09:02;;;;;;;25.92;16.05;;;12.40;99.90;;;;;;6207924;23;20028;-75
2023/10/02 23:11:29;;;;;;;26.13;17.02;;;12.40;99.90;;;;;;6203699;23;20040;-74